Time;durP1;ratioP1;P1;durP2;ratioP2;P2;SDS_P1;SDS_P2;PMS_P1;PMS_P2;Temp;Humidity;BMP_temperature;BMP_pressure;BME280_temperature;BME280_humidity;BME280_pressure;Samples;Min_cycle;Max_cycle;Signal;HPM_P1;HPM_P2
2021/07/03 00:01:08;;;;;;;;;;;;;;;;;;5063460;28;19931;-62
2021/07/03 00:03:36;;;;;;;;;;;;;;;;;;5069251;28;20405;-64
2021/07/03 00:06:03;;;;;;;;;;;;;;;;;;5065800;28;20198;-64
2021/07/03 00:08:30;;;;;;;;;;;;;;;;;;5066274;28;19925;-62
2021/07/03 00:10:57;;;;;;;;;;;;;;;;;;5069004;28;19931;-63
2021/07/03 00:13:24;;;;;;;;;;;;;;;;;;5065397;28;19931;-61
2021/07/03 00:15:51;;;;;;;;;;;;;;;;;;5064353;28;20319;-63
2021/07/03 00:18:18;;;;;;;;;;;;;;;;;;5067280;28;19925;-62
2021/07/03 00:20:45;;;;;;;;;;;;;;;;;;5068663;28;19931;-62
2021/07/03 00:23:12;;;;;;;;;;;;;;;;;;5068668;28;19925;-61
2021/07/03 00:25:39;;;;;;;;;;;;;;;;;;5065651;28;19925;-63
2021/07/03 00:28:06;;;;;;;;;;;;;;;;;;5069614;28;20315;-64
2021/07/03 00:30:33;;;;;;;;;;;;;;;;;;5065742;28;19924;-62
2021/07/03 00:33:00;;;;;;;;;;;;;;;;;;5066862;28;19925;-64
2021/07/03 00:35:27;;;;;;;;;;;;;;;;;;5064036;28;19924;-64
2021/07/03 00:37:54;;;;;;;;;;;;;;;;;;5058743;28;19925;-64
2021/07/03 00:40:21;;;;;;;;;;;;;;;;;;5064859;28;19924;-63
2021/07/03 00:42:48;;;;;;;;;;;;;;;;;;5058662;28;20411;-64
2021/07/03 00:45:15;;;;;;;;;;;;;;;;;;5062708;28;20105;-63
2021/07/03 00:47:42;;;;;;;;;;;;;;;;;;5062558;28;19939;-63
2021/07/03 00:50:09;;;;;;;;;;;;;;;;;;5065158;28;19932;-61
2021/07/03 00:52:36;;;;;;;;;;;;;;;;;;5066415;28;19929;-64
2021/07/03 00:55:03;;;;;;;;;;;;;;;;;;5066932;28;20399;-64
2021/07/03 00:57:31;;;;;;;;;;;;;;;;;;5065579;28;20292;-64
2021/07/03 00:59:58;;;;;;;;;;;;;;;;;;5062386;28;19925;-63
2021/07/03 01:02:25;;;;;;;;;;;;;;;;;;5067489;28;19924;-64
2021/07/03 01:04:52;;;;;;;;;;;;;;;;;;5065921;28;19936;-63
2021/07/03 01:07:19;;;;;;;;;;;;;;;;;;5066668;28;19924;-63
2021/07/03 01:09:46;;;;;;;;;;;;;;;;;;5067537;28;19955;-62
2021/07/03 01:12:13;;;;;;;;;;;;;;;;;;5066678;28;19929;-63
2021/07/03 01:14:40;;;;;;;;;;;;;;;;;;5064381;28;19930;-62
2021/07/03 01:17:06;;;;;;;;;;;;;;;;;;5067206;28;19925;-63
2021/07/03 01:19:33;;;;;;;;;;;;;;;;;;5068281;28;20199;-63
2021/07/03 01:22:00;;;;;;;;;;;;;;;;;;5066835;28;19931;-63
2021/07/03 01:24:27;;;;;;;;;;;;;;;;;;5066457;28;20301;-63
2021/07/03 01:26:54;;;;;;;;;;;;;;;;;;5063005;28;20019;-63
2021/07/03 01:29:21;;;;;;;;;;;;;;;;;;5066960;28;19934;-63
2021/07/03 01:31:48;;;;;;;;;;;;;;;;;;5055251;28;19925;-63
2021/07/03 01:34:15;;;;;;;;;;;;;;;;;;5065851;28;20381;-63
2021/07/03 01:36:42;;;;;;;;;;;;;;;;;;5065596;28;19993;-62
2021/07/03 01:39:09;;;;;;;;;;;;;;;;;;5066004;28;19932;-63
2021/07/03 01:41:36;;;;;;;;;;;;;;;;;;5067796;28;19929;-61
2021/07/03 01:44:03;;;;;;;;;;;;;;;;;;5067757;28;20278;-61
2021/07/03 01:46:30;;;;;;;;;;;;;;;;;;5066830;28;20419;-64
2021/07/03 01:48:57;;;;;;;;;;;;;;;;;;5069016;28;19931;-64
2021/07/03 01:51:24;;;;;;;;;;;;;;;;;;5066833;28;20394;-64
2021/07/03 01:53:51;;;;;;;;;;;;;;;;;;5068642;28;20289;-64
2021/07/03 01:56:18;;;;;;;;;;;;;;;;;;5068994;28;19932;-64
2021/07/03 01:58:45;;;;;;;;;;;;;;;;;;5065661;28;19929;-61
2021/07/03 02:01:12;;;;;;;;;;;;;;;;;;5068565;28;20303;-64
2021/07/03 02:03:39;;;;;;;;;;;;;;;;;;5067519;28;19925;-62
2021/07/03 02:06:06;;;;;;;;;;;;;;;;;;5063144;28;19928;-64
2021/07/03 02:08:33;;;;;;;;;;;;;;;;;;5066307;28;20304;-64
2021/07/03 02:11:00;;;;;;;;;;;;;;;;;;5064929;28;20004;-64
2021/07/03 02:13:26;;;;;;;;;;;;;;;;;;5068150;28;19924;-64
2021/07/03 02:15:53;;;;;;;;;;;;;;;;;;5063025;28;20288;-63
2021/07/03 02:18:20;;;;;;;;;;;;;;;;;;5062383;28;19925;-64
2021/07/03 02:20:47;;;;;;;;;;;;;;;;;;5066581;28;19931;-61
2021/07/03 02:23:14;;;;;;;;;;;;;;;;;;5066912;28;19930;-64
2021/07/03 02:25:41;;;;;;;;;;;;;;;;;;5067128;28;19947;-63
2021/07/03 02:28:08;;;;;;;;;;;;;;;;;;5071112;28;19928;-64
2021/07/03 02:30:35;;;;;;;;;;;;;;;;;;5070654;28;19925;-64
2021/07/03 02:33:02;;;;;;;;;;;;;;;;;;5071853;28;20142;-64
2021/07/03 02:35:29;;;;;;;;;;;;;;;;;;5072740;28;19924;-64
2021/07/03 02:37:56;;;;;;;;;;;;;;;;;;5070619;28;19932;-63
2021/07/03 02:40:23;;;;;;;;;;;;;;;;;;5072864;28;19925;-64
2021/07/03 02:42:50;;;;;;;;;;;;;;;;;;5070060;28;19925;-62
2021/07/03 02:45:17;;;;;;;;;;;;;;;;;;5070932;28;19924;-64
2021/07/03 02:47:44;;;;;;;;;;;;;;;;;;5072175;28;19943;-63
2021/07/03 02:50:11;;;;;;;;;;;;;;;;;;5070854;28;19935;-64
2021/07/03 02:52:38;;;;;;;;;;;;;;;;;;5070390;28;20168;-65
2021/07/03 02:55:05;;;;;;;;;;;;;;;;;;5068640;28;19931;-63
2021/07/03 02:57:32;;;;;;;;;;;;;;;;;;5071598;28;19939;-60
2021/07/03 02:59:59;;;;;;;;;;;;;;;;;;5071222;28;20312;-60
2021/07/03 03:02:26;;;;;;;;;;;;;;;;;;5070072;28;20403;-63
2021/07/03 03:04:53;;;;;;;;;;;;;;;;;;5072362;28;19928;-64
2021/07/03 03:07:19;;;;;;;;;;;;;;;;;;5068864;28;19924;-62
2021/07/03 03:09:46;;;;;;;;;;;;;;;;;;5068802;28;20105;-63
2021/07/03 03:12:13;;;;;;;;;;;;;;;;;;5068898;28;19931;-62
2021/07/03 03:14:40;;;;;;;;;;;;;;;;;;5068824;28;19925;-63
2021/07/03 03:17:07;;;;;;;;;;;;;;;;;;5066725;28;20093;-62
2021/07/03 03:19:34;;;;;;;;;;;;;;;;;;5067592;28;20295;-62
2021/07/03 03:22:01;;;;;;;;;;;;;;;;;;5064205;28;19925;-63
2021/07/03 03:24:28;;;;;;;;;;;;;;;;;;5070178;28;19932;-63
2021/07/03 03:26:55;;;;;;;;;;;;;;;;;;5068401;28;19931;-63
2021/07/03 03:29:22;;;;;;;;;;;;;;;;;;5069082;28;20385;-62
2021/07/03 03:31:49;;;;;;;;;;;;;;;;;;5068999;28;20187;-63
2021/07/03 03:34:16;;;;;;;;;;;;;;;;;;5067121;28;20308;-63
2021/07/03 03:36:43;;;;;;;;;;;;;;;;;;5071379;28;19924;-64
2021/07/03 03:39:10;;;;;;;;;;;;;;;;;;5071528;28;19924;-63
2021/07/03 03:41:37;;;;;;;;;;;;;;;;;;5067235;28;19930;-63
2021/07/03 03:44:04;;;;;;;;;;;;;;;;;;5066422;28;19925;-63
2021/07/03 03:46:31;;;;;;;;;;;;;;;;;;5065483;28;20423;-63
2021/07/03 03:48:58;;;;;;;;;;;;;;;;;;5067393;28;20320;-63
2021/07/03 03:51:25;;;;;;;;;;;;;;;;;;5068869;28;21416;-63
2021/07/03 03:53:52;;;;;;;;;;;;;;;;;;5066015;28;19943;-63
2021/07/03 03:56:19;;;;;;;;;;;;;;;;;;5067517;28;19924;-63
2021/07/03 03:58:45;;;;;;;;;;;;;;;;;;5068034;28;19925;-63
2021/07/03 04:01:12;;;;;;;;;;;;;;;;;;5063598;28;19936;-63
2021/07/03 04:03:39;;;;;;;;;;;;;;;;;;5061884;28;20304;-63
2021/07/03 04:06:06;;;;;;;;;;;;;;;;;;5064917;28;20324;-63
2021/07/03 04:08:34;;;;;;;;;;;;;;;;;;5062360;28;20316;-63
2021/07/03 04:11:01;;;;;;;;;;;;;;;;;;5067749;28;20304;-63
2021/07/03 04:13:28;;;;;;;;;;;;;;;;;;5062607;28;20278;-63
2021/07/03 04:15:55;;;;;;;;;;;;;;;;;;5069598;28;19924;-63
2021/07/03 04:18:22;;;;;;;;;;;;;;;;;;5069212;28;19924;-63
2021/07/03 04:20:49;;;;;;;;;;;;;;;;;;5067135;28;19931;-63
2021/07/03 04:23:16;;;;;;;;;;;;;;;;;;5070638;28;19925;-63
2021/07/03 04:25:43;;;;;;;;;;;;;;;;;;5065749;28;19932;-63
2021/07/03 04:28:10;;;;;;;;;;;;;;;;;;5067900;28;20388;-65
2021/07/03 04:30:37;;;;;;;;;;;;;;;;;;5065969;28;19960;-63
2021/07/03 04:33:05;;;;;;;;;;;;;;;;;;5068394;28;20312;-63
2021/07/03 04:35:32;;;;;;;;;;;;;;;;;;5063023;28;20353;-63
2021/07/03 04:37:59;;;;;;;;;;;;;;;;;;5064824;28;19955;-63
2021/07/03 04:40:26;;;;;;;;;;;;;;;;;;5063228;28;19931;-64
2021/07/03 04:42:53;;;;;;;;;;;;;;;;;;5067221;28;19932;-63
2021/07/03 04:45:20;;;;;;;;;;;;;;;;;;5069695;28;19925;-63
2021/07/03 04:47:47;;;;;;;;;;;;;;;;;;5063068;28;20388;-63
2021/07/03 04:50:14;;;;;;;;;;;;;;;;;;5062276;28;20312;-63
2021/07/03 04:52:41;;;;;;;;;;;;;;;;;;5067692;28;19930;-63
2021/07/03 04:55:08;;;;;;;;;;;;;;;;;;5069869;28;19924;-63
2021/07/03 04:57:35;;;;;;;;;;;;;;;;;;5069573;28;19936;-63
2021/07/03 05:00:02;;;;;;;;;;;;;;;;;;5069322;28;19924;-63
2021/07/03 05:02:29;;;;;;;;;;;;;;;;;;5069952;28;19925;-63
2021/07/03 05:04:56;;;;;;;;;;;;;;;;;;5067457;28;19925;-63
2021/07/03 05:07:23;;;;;;;;;;;;;;;;;;5060591;28;20099;-63
2021/07/03 05:09:50;;;;;;;;;;;;;;;;;;5069504;28;19931;-63
2021/07/03 05:12:17;;;;;;;;;;;;;;;;;;5060761;28;19931;-63
2021/07/03 05:14:44;;;;;;;;;;;;;;;;;;5066664;28;19924;-63
2021/07/03 05:17:11;;;;;;;;;;;;;;;;;;5068444;28;20292;-63
2021/07/03 05:19:38;;;;;;;;;;;;;;;;;;5067949;28;19924;-63
2021/07/03 05:22:05;;;;;;;;;;;;;;;;;;5058950;28;19953;-63
2021/07/03 05:24:32;;;;;;;;;;;;;;;;;;5062358;28;19924;-63
2021/07/03 05:26:59;;;;;;;;;;;;;;;;;;5062431;28;19931;-63
2021/07/03 05:29:26;;;;;;;;;;;;;;;;;;5069482;28;19924;-63
2021/07/03 05:31:53;;;;;;;;;;;;;;;;;;5061865;28;19925;-63
2021/07/03 05:34:20;;;;;;;;;;;;;;;;;;5069299;28;19924;-63
2021/07/03 05:36:48;;;;;;;;;;;;;;;;;;5067844;28;20126;-63
2021/07/03 05:39:15;;;;;;;;;;;;;;;;;;5067833;28;19924;-64
2021/07/03 05:41:42;;;;;;;;;;;;;;;;;;5064943;28;19925;-64
2021/07/03 05:44:09;;;;;;;;;;;;;;;;;;5068814;28;19929;-63
2021/07/03 05:46:36;;;;;;;;;;;;;;;;;;5069767;28;20296;-63
2021/07/03 05:49:03;;;;;;;;;;;;;;;;;;5068782;28;19931;-66
2021/07/03 05:51:30;;;;;;;;;;;;;;;;;;5071717;28;19931;-62
2021/07/03 05:53:57;;;;;;;;;;;;;;;;;;5073159;28;19924;-62
2021/07/03 05:56:26;;;;;;;;;;;;;;;;;;5071760;28;19932;-62
2021/07/03 05:58:53;;;;;;;;;;;;;;;;;;5073207;28;20011;-62
2021/07/03 06:01:20;;;;;;;;;;;;;;;;;;5067482;28;20023;-64
2021/07/03 06:03:47;;;;;;;;;;;;;;;;;;5073714;28;19930;-64
2021/07/03 06:06:14;;;;;;;;;;;;;;;;;;5071395;28;19940;-64
2021/07/03 06:08:41;;;;;;;;;;;;;;;;;;5072324;28;19924;-64
2021/07/03 06:11:08;;;;;;;;;;;;;;;;;;5071358;28;19931;-64
2021/07/03 06:13:35;;;;;;;;;;;;;;;;;;5069299;28;20019;-64
2021/07/03 06:16:02;;;;;;;;;;;;;;;;;;5071983;28;20339;-64
2021/07/03 06:18:29;;;;;;;;;;;;;;;;;;5072376;28;19932;-64
2021/07/03 06:20:57;;;;;;;;;;;;;;;;;;5069257;28;19936;-64
2021/07/03 06:23:24;;;;;;;;;;;;;;;;;;5071153;28;20108;-64
2021/07/03 06:25:51;;;;;;;;;;;;;;;;;;5069644;28;19931;-64
2021/07/03 06:28:18;;;;;;;;;;;;;;;;;;5069380;28;19931;-64
2021/07/03 06:30:45;;;;;;;;;;;;;;;;;;5066873;28;20012;-63
2021/07/03 06:33:12;;;;;;;;;;;;;;;;;;5066997;28;20301;-64
2021/07/03 06:35:39;;;;;;;;;;;;;;;;;;5071462;28;20007;-63
2021/07/03 06:38:06;;;;;;;;;;;;;;;;;;5067121;28;19925;-63
2021/07/03 06:40:33;;;;;;;;;;;;;;;;;;5064564;28;19955;-63
2021/07/03 06:43:00;;;;;;;;;;;;;;;;;;5071024;28;19925;-64
2021/07/03 06:45:27;;;;;;;;;;;;;;;;;;5071465;28;19925;-64
2021/07/03 06:47:54;;;;;;;;;;;;;;;;;;5070936;28;19924;-64
2021/07/03 06:50:21;;;;;;;;;;;;;;;;;;5068308;28;20010;-64
2021/07/03 06:52:48;;;;;;;;;;;;;;;;;;5071774;28;20380;-64
2021/07/03 06:55:15;;;;;;;;;;;;;;;;;;5065773;28;19932;-64
2021/07/03 06:57:42;;;;;;;;;;;;;;;;;;5071082;28;19924;-64
2021/07/03 07:00:09;;;;;;;;;;;;;;;;;;5058055;28;19930;-65
2021/07/03 07:02:36;;;;;;;;;;;;;;;;;;5066810;28;19929;-64
2021/07/03 07:05:03;;;;;;;;;;;;;;;;;;5063277;28;19931;-64
2021/07/03 07:07:30;;;;;;;;;;;;;;;;;;5067210;28;20353;-65
2021/07/03 07:09:56;;;;;;;;;;;;;;;;;;5066030;28;19924;-64
2021/07/03 07:12:23;;;;;;;;;;;;;;;;;;5065915;28;19933;-65
2021/07/03 07:14:50;;;;;;;;;;;;;;;;;;5069941;28;19924;-64
2021/07/03 07:17:17;;;;;;;;;;;;;;;;;;5065721;28;20389;-64
2021/07/03 07:19:44;;;;;;;;;;;;;;;;;;5064894;28;20399;-65
2021/07/03 07:22:11;;;;;;;;;;;;;;;;;;5071299;28;19924;-65
2021/07/03 07:24:38;;;;;;;;;;;;;;;;;;5063750;28;19929;-65
2021/07/03 07:27:05;;;;;;;;;;;;;;;;;;5067515;28;19924;-65
2021/07/03 07:29:32;;;;;;;;;;;;;;;;;;5061164;28;19925;-65
2021/07/03 07:31:59;;;;;;;;;;;;;;;;;;5069407;28;19969;-65
2021/07/03 07:34:26;;;;;;;;;;;;;;;;;;5064896;28;19924;-65
2021/07/03 07:36:53;;;;;;;;;;;;;;;;;;5061581;28;19925;-65
2021/07/03 07:39:20;;;;;;;;;;;;;;;;;;5068459;28;19925;-66
2021/07/03 07:41:47;;;;;;;;;;;;;;;;;;5067093;28;19931;-65
2021/07/03 07:44:14;;;;;;;;;;;;;;;;;;5069599;28;20011;-64
2021/07/03 07:46:41;;;;;;;;;;;;;;;;;;5070076;28;20299;-63
2021/07/03 07:49:08;;;;;;;;;;;;;;;;;;5067018;28;19930;-63
2021/07/03 07:51:35;;;;;;;;;;;;;;;;;;5066288;28;19928;-64
2021/07/03 07:54:04;;;;;;;;;;;;;;;;;;5068693;28;20414;-64
2021/07/03 07:56:31;;;;;;;;;;;;;;;;;;5067740;28;19936;-62
2021/07/03 07:58:58;;;;;;;;;;;;;;;;;;5055957;28;20372;-62
2021/07/03 08:01:25;;;;;;;;;;;;;;;;;;5065390;28;20175;-62
2021/07/03 08:03:52;;;;;;;;;;;;;;;;;;5066270;28;20020;-62
2021/07/03 08:06:19;;;;;;;;;;;;;;;;;;5070565;28;19925;-62
2021/07/03 08:08:46;;;;;;;;;;;;;;;;;;5070916;28;20323;-62
2021/07/03 08:11:13;;;;;;;;;;;;;;;;;;5064352;28;19947;-62
2021/07/03 08:13:40;;;;;;;;;;;;;;;;;;5064500;28;20023;-62
2021/07/03 08:16:07;;;;;;;;;;;;;;;;;;5068107;28;19946;-62
2021/07/03 08:18:34;;;;;;;;;;;;;;;;;;5069756;28;20023;-62
2021/07/03 08:21:00;;;;;;;;;;;;;;;;;;5068255;28;20392;-62
2021/07/03 08:23:27;;;;;;;;;;;;;;;;;;5063740;28;19925;-62
2021/07/03 08:25:54;;;;;;;;;;;;;;;;;;5064018;28;19932;-63
2021/07/03 08:28:21;;;;;;;;;;;;;;;;;;5067968;28;19932;-63
2021/07/03 08:30:48;;;;;;;;;;;;;;;;;;5065144;28;20311;-63
2021/07/03 08:33:15;;;;;;;;;;;;;;;;;;5065243;28;19928;-63
2021/07/03 08:35:42;;;;;;;;;;;;;;;;;;5056819;28;19925;-63
2021/07/03 08:38:09;;;;;;;;;;;;;;;;;;5064093;28;19925;-63
2021/07/03 08:40:36;;;;;;;;;;;;;;;;;;5066877;28;19928;-64
2021/07/03 08:43:06;;;;;;;;;;;;;;;;;;5062599;28;20411;-63
2021/07/03 08:45:33;;;;;;;;;;;;;;;;;;5062579;28;19968;-64
2021/07/03 08:48:00;;;;;;;;;;;;;;;;;;5068563;28;20002;-63
2021/07/03 08:50:27;;;;;;;;;;;;;;;;;;5065013;28;20411;-63
2021/07/03 08:52:54;;;;;;;;;;;;;;;;;;5066513;28;19933;-63
2021/07/03 08:55:21;;;;;;;;;;;;;;;;;;5069734;28;19951;-63
2021/07/03 08:57:49;;;;;;;;;;;;;;;;;;5067526;28;19924;-63
2021/07/03 09:00:16;;;;;;;;;;;;;;;;;;5066570;28;19991;-65
2021/07/03 09:02:44;;;;;;;;;;;;;;;;;;5068929;28;19931;-64
2021/07/03 09:05:11;;;;;;;;;;;;;;;;;;5068502;28;19925;-64
2021/07/03 09:07:38;;;;;;;;;;;;;;;;;;5065700;28;19931;-66
2021/07/03 09:10:05;;;;;;;;;;;;;;;;;;5064839;28;19931;-66
2021/07/03 09:12:32;;;;;;;;;;;;;;;;;;5064745;28;19928;-67
2021/07/03 09:14:59;;;;;;;;;;;;;;;;;;5068671;28;19924;-66
2021/07/03 09:17:26;;;;;;;;;;;;;;;;;;5062044;28;20385;-67
2021/07/03 09:19:53;;;;;;;;;;;;;;;;;;5067680;28;19925;-66
2021/07/03 09:22:20;;;;;;;;;;;;;;;;;;5064906;28;19929;-67
2021/07/03 09:24:47;;;;;;;;;;;;;;;;;;5067283;28;19947;-67
2021/07/03 09:27:14;;;;;;;;;;;;;;;;;;5064822;28;19968;-67
2021/07/03 09:29:41;;;;;;;;;;;;;;;;;;5068288;28;19924;-67
2021/07/03 09:32:08;;;;;;;;;;;;;;;;;;5066207;28;19924;-66
2021/07/03 09:34:35;;;;;;;;;;;;;;;;;;5065161;28;19932;-65
2021/07/03 09:37:02;;;;;;;;;;;;;;;;;;5065777;28;19925;-67
2021/07/03 09:39:29;;;;;;;;;;;;;;;;;;5064455;28;19924;-67
2021/07/03 09:41:56;;;;;;;;;;;;;;;;;;5068253;28;20408;-67
2021/07/03 09:44:23;;;;;;;;;;;;;;;;;;5068836;28;19924;-68
2021/07/03 09:46:50;;;;;;;;;;;;;;;;;;5068902;28;19931;-66
2021/07/03 09:49:17;;;;;;;;;;;;;;;;;;5067081;28;19924;-68
2021/07/03 09:51:44;;;;;;;;;;;;;;;;;;5062204;28;19925;-66
2021/07/03 09:54:11;;;;;;;;;;;;;;;;;;5060827;28;19974;-67
2021/07/03 09:56:38;;;;;;;;;;;;;;;;;;5064627;28;19924;-67
2021/07/03 09:59:05;;;;;;;;;;;;;;;;;;5064920;28;19931;-66
2021/07/03 10:01:32;;;;;;;;;;;;;;;;;;5068400;28;19924;-67
2021/07/03 10:04:01;;;;;;;;;;;;;;;;;;5066201;28;19932;-67
2021/07/03 10:06:28;;;;;;;;;;;;;;;;;;5065090;28;19925;-65
2021/07/03 10:08:55;;;;;;;;;;;;;;;;;;5063917;28;19940;-66
2021/07/03 10:11:22;;;;;;;;;;;;;;;;;;5062589;28;19929;-67
2021/07/03 10:13:49;;;;;;;;;;;;;;;;;;5064960;28;19960;-67
2021/07/03 10:16:16;;;;;;;;;;;;;;;;;;5065317;28;19982;-66
2021/07/03 10:18:43;;;;;;;;;;;;;;;;;;5060173;28;20269;-65
2021/07/03 10:21:10;;;;;;;;;;;;;;;;;;5062515;28;20281;-66
2021/07/03 10:23:36;;;;;;;;;;;;;;;;;;5065235;28;19933;-64
2021/07/03 10:26:05;;;;;;;;;;;;;;;;;;5065444;28;20011;-66
2021/07/03 10:28:32;;;;;;;;;;;;;;;;;;5060206;28;19937;-65
2021/07/03 10:30:59;;;;;;;;;;;;;;;;;;5060393;28;19974;-65
2021/07/03 10:33:26;;;;;;;;;;;;;;;;;;5063823;28;19982;-66
2021/07/03 10:35:53;;;;;;;;;;;;;;;;;;5062105;28;19930;-64
2021/07/03 10:38:20;;;;;;;;;;;;;;;;;;5068375;28;20301;-64
2021/07/03 10:40:47;;;;;;;;;;;;;;;;;;5069324;28;19924;-66
2021/07/03 10:43:14;;;;;;;;;;;;;;;;;;5064606;28;19925;-65
2021/07/03 10:45:41;;;;;;;;;;;;;;;;;;5067045;28;19932;-65
2021/07/03 10:48:08;;;;;;;;;;;;;;;;;;5066413;28;19929;-66
2021/07/03 10:50:35;;;;;;;;;;;;;;;;;;5065297;28;19925;-66
2021/07/03 10:53:02;;;;;;;;;;;;;;;;;;5068295;28;19924;-66
2021/07/03 10:55:29;;;;;;;;;;;;;;;;;;5066405;28;20006;-66
2021/07/03 10:57:56;;;;;;;;;;;;;;;;;;5066570;28;19929;-66
2021/07/03 11:00:23;;;;;;;;;;;;;;;;;;5066910;28;19925;-66
2021/07/03 11:02:50;;;;;;;;;;;;;;;;;;5070089;28;19924;-66
2021/07/03 11:05:17;;;;;;;;;;;;;;;;;;5063907;28;19933;-66
2021/07/03 11:07:45;;;;;;;;;;;;;;;;;;5065907;28;19931;-67
2021/07/03 11:10:12;;;;;;;;;;;;;;;;;;5064194;28;19959;-65
2021/07/03 11:12:39;;;;;;;;;;;;;;;;;;5066930;28;19924;-66
2021/07/03 11:15:06;;;;;;;;;;;;;;;;;;5063804;28;19929;-66
2021/07/03 11:17:33;;;;;;;;;;;;;;;;;;5063917;28;19933;-65
2021/07/03 11:20:00;;;;;;;;;;;;;;;;;;5065526;28;19924;-67
2021/07/03 11:22:27;;;;;;;;;;;;;;;;;;5067318;28;20376;-66
2021/07/03 11:24:54;;;;;;;;;;;;;;;;;;5066233;28;19924;-66
2021/07/03 11:27:21;;;;;;;;;;;;;;;;;;5066796;28;20019;-65
2021/07/03 11:29:48;;;;;;;;;;;;;;;;;;5065872;28;20392;-66
2021/07/03 11:32:15;;;;;;;;;;;;;;;;;;5067313;28;20312;-65
2021/07/03 11:34:42;;;;;;;;;;;;;;;;;;5064313;28;19972;-67
2021/07/03 11:37:09;;;;;;;;;;;;;;;;;;5068794;28;20323;-65
2021/07/03 11:39:35;;;;;;;;;;;;;;;;;;5065640;28;19929;-65
2021/07/03 11:42:02;;;;;;;;;;;;;;;;;;5065813;28;19924;-66
2021/07/03 11:44:29;;;;;;;;;;;;;;;;;;5068630;28;19933;-65
2021/07/03 11:46:56;;;;;;;;;;;;;;;;;;5069101;28;19924;-65
2021/07/03 11:49:23;;;;;;;;;;;;;;;;;;5063915;28;20285;-65
2021/07/03 11:51:50;;;;;;;;;;;;;;;;;;5068660;28;19924;-66
2021/07/03 11:54:17;;;;;;;;;;;;;;;;;;5071849;28;20016;-65
2021/07/03 11:56:44;;;;;;;;;;;;;;;;;;5064965;28;20383;-65
2021/07/03 11:59:11;;;;;;;;;;;;;;;;;;5068479;28;19924;-65
2021/07/03 12:01:38;;;;;;;;;;;;;;;;;;5067892;28;19931;-65
2021/07/03 12:04:05;;;;;;;;;;;;;;;;;;5068156;28;19929;-66
2021/07/03 12:06:32;;;;;;;;;;;;;;;;;;5063880;28;19924;-65
2021/07/03 12:08:59;;;;;;;;;;;;;;;;;;5062368;28;19928;-66
2021/07/03 12:11:26;;;;;;;;;;;;;;;;;;5065487;28;19924;-65
2021/07/03 12:13:53;;;;;;;;;;;;;;;;;;5067455;28;19925;-66
2021/07/03 12:16:20;;;;;;;;;;;;;;;;;;5067972;28;19925;-66
2021/07/03 12:18:49;;;;;;;;;;;;;;;;;;5064969;28;19924;-66
2021/07/03 12:21:16;;;;;;;;;;;;;;;;;;5066407;28;20365;-65
2021/07/03 12:23:43;;;;;;;;;;;;;;;;;;5064235;28;19932;-66
2021/07/03 12:26:10;;;;;;;;;;;;;;;;;;5066472;28;19924;-66
2021/07/03 12:28:38;;;;;;;;;;;;;;;;;;5067777;28;21577;-63
2021/07/03 12:31:05;;;;;;;;;;;;;;;;;;5070469;28;19981;-65
2021/07/03 12:33:33;;;;;;;;;;;;;;;;;;5072171;28;20377;-65
2021/07/03 12:36:00;;;;;;;;;;;;;;;;;;5072127;28;19974;-64
2021/07/03 12:38:27;;;;;;;;;;;;;;;;;;5072161;28;19932;-65
2021/07/03 12:40:54;;;;;;;;;;;;;;;;;;5068725;28;19931;-65
2021/07/03 12:43:21;;;;;;;;;;;;;;;;;;5072328;28;19931;-65
2021/07/03 12:45:48;;;;;;;;;;;;;;;;;;5071457;28;20022;-65
2021/07/03 12:48:15;;;;;;;;;;;;;;;;;;5072089;28;19932;-64
2021/07/03 12:50:42;;;;;;;;;;;;;;;;;;5056158;28;20020;-64
2021/07/03 12:53:09;;;;;;;;;;;;;;;;;;5052186;28;19925;-65
2021/07/03 12:55:39;;;;;;;;;;;;;;;;;;5066767;28;19934;-65
2021/07/03 12:58:06;;;;;;;;;;;;;;;;;;5070290;28;20019;-65
2021/07/03 13:00:33;;;;;;;;;;;;;;;;;;5071352;28;20281;-66
2021/07/03 13:03:02;;;;;;;;;;;;;;;;;;5071911;28;19931;-67
2021/07/03 13:05:29;;;;;;;;;;;;;;;;;;5069853;28;19963;-66
2021/07/03 13:07:56;;;;;;;;;;;;;;;;;;5086198;28;19934;-66
2021/07/03 13:10:23;;;;;;;;;;;;;;;;;;5073684;28;19931;-65
2021/07/03 13:12:50;;;;;;;;;;;;;;;;;;5068925;28;20428;-65
2021/07/03 13:15:17;;;;;;;;;;;;;;;;;;5070157;28;19934;-65
2021/07/03 13:17:44;;;;;;;;;;;;;;;;;;5071118;28;19925;-65
2021/07/03 13:20:11;;;;;;;;;;;;;;;;;;5069535;28;20385;-64
2021/07/03 13:22:38;;;;;;;;;;;;;;;;;;5070795;28;20274;-65
2021/07/03 13:25:05;;;;;;;;;;;;;;;;;;5069653;28;19935;-66
2021/07/03 13:27:32;;;;;;;;;;;;;;;;;;5070190;28;19930;-65
2021/07/03 13:29:59;;;;;;;;;;;;;;;;;;5068168;28;19924;-65
2021/07/03 13:32:26;;;;;;;;;;;;;;;;;;5070065;28;20395;-65
2021/07/03 13:34:53;;;;;;;;;;;;;;;;;;5069785;28;20300;-65
2021/07/03 13:37:20;;;;;;;;;;;;;;;;;;5071385;28;19925;-66
2021/07/03 13:39:47;;;;;;;;;;;;;;;;;;5067693;28;19968;-65
2021/07/03 13:42:14;;;;;;;;;;;;;;;;;;5068928;28;19947;-65
2021/07/03 13:44:41;;;;;;;;;;;;;;;;;;5068155;28;19924;-65
2021/07/03 13:47:08;;;;;;;;;;;;;;;;;;5069715;28;19931;-65
2021/07/03 13:49:35;;;;;;;;;;;;;;;;;;5059087;28;19932;-65
2021/07/03 13:52:02;;;;;;;;;;;;;;;;;;5068202;28;19946;-65
2021/07/03 13:54:29;;;;;;;;;;;;;;;;;;5069562;28;19925;-64
2021/07/03 13:56:57;;;;;;;;;;;;;;;;;;5069648;28;19928;-63
2021/07/03 13:59:24;;;;;;;;;;;;;;;;;;5062555;28;20146;-64
2021/07/03 14:01:51;;;;;;;;;;;;;;;;;;5070607;28;19931;-65
2021/07/03 14:04:18;;;;;;;;;;;;;;;;;;5069977;28;20064;-65
2021/07/03 14:06:45;;;;;;;;;;;;;;;;;;5067500;28;19931;-65
2021/07/03 14:09:12;;;;;;;;;;;;;;;;;;5069099;28;19924;-64
2021/07/03 14:11:39;;;;;;;;;;;;;;;;;;5070700;28;19925;-66
2021/07/03 14:14:06;;;;;;;;;;;;;;;;;;5072517;28;19924;-66
2021/07/03 14:16:33;;;;;;;;;;;;;;;;;;5069083;28;20412;-64
2021/07/03 14:19:00;;;;;;;;;;;;;;;;;;5061010;28;19932;-66
2021/07/03 14:21:27;;;;;;;;;;;;;;;;;;5075006;28;19931;-65
2021/07/03 14:23:54;;;;;;;;;;;;;;;;;;5073680;28;19939;-65
2021/07/03 14:26:25;;;;;;;;;;;;;;;;;;5072537;28;19925;-64
2021/07/03 14:28:52;;;;;;;;;;;;;;;;;;5067529;28;20023;-66
2021/07/03 14:31:19;;;;;;;;;;;;;;;;;;5073742;28;20106;-65
2021/07/03 14:33:46;;;;;;;;;;;;;;;;;;5074706;28;20006;-66
2021/07/03 14:36:13;;;;;;;;;;;;;;;;;;5072008;28;19940;-64
2021/07/03 14:38:41;;;;;;;;;;;;;;;;;;5073367;28;19931;-65
2021/07/03 14:41:08;;;;;;;;;;;;;;;;;;5070567;28;19981;-65
2021/07/03 14:43:35;;;;;;;;;;;;;;;;;;5067445;28;19924;-65
2021/07/03 14:46:02;;;;;;;;;;;;;;;;;;5073551;28;19924;-65
2021/07/03 14:48:29;;;;;;;;;;;;;;;;;;5074090;28;19929;-66
2021/07/03 14:50:56;;;;;;;;;;;;;;;;;;5070405;28;19924;-65
2021/07/03 14:53:23;;;;;;;;;;;;;;;;;;5074290;28;19929;-66
2021/07/03 14:55:50;;;;;;;;;;;;;;;;;;5072179;28;19924;-65
2021/07/03 14:58:17;;;;;;;;;;;;;;;;;;5072087;28;20281;-66
2021/07/03 15:00:44;;;;;;;;;;;;;;;;;;5071748;28;19932;-66
2021/07/03 15:03:11;;;;;;;;;;;;;;;;;;5074229;28;19946;-66
2021/07/03 15:05:38;;;;;;;;;;;;;;;;;;5071060;28;19999;-66
2021/07/03 15:08:05;;;;;;;;;;;;;;;;;;5071370;28;19924;-66
2021/07/03 15:10:32;;;;;;;;;;;;;;;;;;5070525;28;20300;-67
2021/07/03 15:12:59;;;;;;;;;;;;;;;;;;5071573;28;20023;-66
2021/07/03 15:15:26;;;;;;;;;;;;;;;;;;5070831;28;20360;-67
2021/07/03 15:17:53;;;;;;;;;;;;;;;;;;5073915;28;19930;-66
2021/07/03 15:20:20;;;;;;;;;;;;;;;;;;5070522;28;19931;-66
2021/07/03 15:22:47;;;;;;;;;;;;;;;;;;5071337;28;20347;-66
2021/07/03 15:25:14;;;;;;;;;;;;;;;;;;5067316;28;20292;-65
2021/07/03 15:27:41;;;;;;;;;;;;;;;;;;5068582;28;19934;-64
2021/07/03 15:30:08;;;;;;;;;;;;;;;;;;5067444;28;19978;-66
2021/07/03 15:32:35;;;;;;;;;;;;;;;;;;5064901;28;19925;-66
2021/07/03 15:35:02;;;;;;;;;;;;;;;;;;5065930;28;19924;-65
2021/07/03 15:37:29;;;;;;;;;;;;;;;;;;5067508;28;20462;-65
2021/07/03 15:39:56;;;;;;;;;;;;;;;;;;5064285;28;19925;-64
2021/07/03 15:42:26;;;;;;;;;;;;;;;;;;5069369;28;19924;-64
2021/07/03 15:44:53;;;;;;;;;;;;;;;;;;5065961;28;19932;-65
2021/07/03 15:47:20;;;;;;;;;;;;;;;;;;5064989;28;19925;-65
2021/07/03 15:49:47;;;;;;;;;;;;;;;;;;5068104;28;19932;-65
2021/07/03 15:52:14;;;;;;;;;;;;;;;;;;5068244;28;19931;-65
2021/07/03 15:54:41;;;;;;;;;;;;;;;;;;5065983;28;19924;-65
2021/07/03 15:57:08;;;;;;;;;;;;;;;;;;5062111;28;20007;-64
2021/07/03 15:59:35;;;;;;;;;;;;;;;;;;5067370;28;20440;-63
2021/07/03 16:02:02;;;;;;;;;;;;;;;;;;5067636;28;19925;-64
2021/07/03 16:04:29;;;;;;;;;;;;;;;;;;5066309;28;19928;-64
2021/07/03 16:06:56;;;;;;;;;;;;;;;;;;5060317;28;19932;-66
2021/07/03 16:09:23;;;;;;;;;;;;;;;;;;5063872;28;19924;-65
2021/07/03 16:11:50;;;;;;;;;;;;;;;;;;5066829;28;19931;-64
2021/07/03 16:14:17;;;;;;;;;;;;;;;;;;5063388;28;19934;-65
2021/07/03 16:16:44;;;;;;;;;;;;;;;;;;5066312;28;19925;-64
2021/07/03 16:19:11;;;;;;;;;;;;;;;;;;5069167;28;19931;-64
2021/07/03 16:21:38;;;;;;;;;;;;;;;;;;5064770;28;20354;-64
2021/07/03 16:24:05;;;;;;;;;;;;;;;;;;5066717;28;19924;-64
2021/07/03 16:26:32;;;;;;;;;;;;;;;;;;5069494;28;20560;-64
2021/07/03 16:28:59;;;;;;;;;;;;;;;;;;5068851;28;19924;-64
2021/07/03 16:31:26;;;;;;;;;;;;;;;;;;5066942;28;19955;-64
2021/07/03 16:33:53;;;;;;;;;;;;;;;;;;5064730;28;19931;-65
2021/07/03 16:36:20;;;;;;;;;;;;;;;;;;5065850;28;19931;-64
2021/07/03 16:38:47;;;;;;;;;;;;;;;;;;5064092;28;19929;-64
2021/07/03 16:41:19;;;;;;;;;;;;;;;;;;5067179;28;20393;-64
2021/07/03 16:43:46;;;;;;;;;;;;;;;;;;5059699;28;20301;-65